sensor_id;sensor_type;location;lat;lon;timestamp;P1;durP1;ratioP1;P2;durP2;ratioP2
20832;SDS011;56075;51.264;7.150;2023-05-07T00:00:38;5.40;;;2.85;;
20832;SDS011;56075;51.264;7.150;2023-05-07T00:03:10;6.20;;;3.08;;
20832;SDS011;56075;51.264;7.150;2023-05-07T00:05:41;4.43;;;2.55;;
20832;SDS011;56075;51.264;7.150;2023-05-07T00:08:13;5.90;;;2.85;;
20832;SDS011;56075;51.264;7.150;2023-05-07T00:10:44;4.03;;;2.40;;
20832;SDS011;56075;51.264;7.150;2023-05-07T00:13:15;6.70;;;2.83;;
20832;SDS011;56075;51.264;7.150;2023-05-07T00:15:46;6.40;;;2.65;;
20832;SDS011;56075;51.264;7.150;2023-05-07T00:18:17;6.40;;;2.42;;
20832;SDS011;56075;51.264;7.150;2023-05-07T00:20:51;8.23;;;2.40;;
20832;SDS011;56075;51.264;7.150;2023-05-07T00:23:22;4.22;;;2.42;;
20832;SDS011;56075;51.264;7.150;2023-05-07T00:25:54;3.92;;;2.53;;
20832;SDS011;56075;51.264;7.150;2023-05-07T00:28:25;4.78;;;2.90;;
20832;SDS011;56075;51.264;7.150;2023-05-07T00:30:56;5.25;;;2.72;;
20832;SDS011;56075;51.264;7.150;2023-05-07T00:33:27;6.13;;;3.00;;
20832;SDS011;56075;51.264;7.150;2023-05-07T00:35:58;5.22;;;2.80;;
20832;SDS011;56075;51.264;7.150;2023-05-07T00:38:31;7.25;;;3.40;;
20832;SDS011;56075;51.264;7.150;2023-05-07T00:41:03;4.97;;;2.88;;
20832;SDS011;56075;51.264;7.150;2023-05-07T00:43:34;6.45;;;2.95;;
20832;SDS011;56075;51.264;7.150;2023-05-07T00:46:05;6.88;;;3.13;;
20832;SDS011;56075;51.264;7.150;2023-05-07T00:48:36;5.03;;;2.70;;
20832;SDS011;56075;51.264;7.150;2023-05-07T00:51:07;4.70;;;2.63;;
20832;SDS011;56075;51.264;7.150;2023-05-07T00:53:39;5.18;;;2.80;;
20832;SDS011;56075;51.264;7.150;2023-05-07T00:56:11;5.85;;;2.47;;
20832;SDS011;56075;51.264;7.150;2023-05-07T00:58:42;3.80;;;2.53;;
20832;SDS011;56075;51.264;7.150;2023-05-07T01:01:13;5.25;;;3.10;;
20832;SDS011;56075;51.264;7.150;2023-05-07T01:03:47;5.25;;;2.42;;
20832;SDS011;56075;51.264;7.150;2023-05-07T01:06:18;6.40;;;2.90;;
20832;SDS011;56075;51.264;7.150;2023-05-07T01:08:51;8.68;;;2.90;;
20832;SDS011;56075;51.264;7.150;2023-05-07T01:11:23;5.05;;;2.90;;
20832;SDS011;56075;51.264;7.150;2023-05-07T01:13:56;3.78;;;2.50;;
20832;SDS011;56075;51.264;7.150;2023-05-07T01:16:29;4.75;;;2.58;;
20832;SDS011;56075;51.264;7.150;2023-05-07T01:19:01;6.07;;;3.05;;
20832;SDS011;56075;51.264;7.150;2023-05-07T01:21:33;4.47;;;2.67;;
20832;SDS011;56075;51.264;7.150;2023-05-07T01:24:09;7.25;;;3.00;;
20832;SDS011;56075;51.264;7.150;2023-05-07T01:26:40;5.25;;;2.50;;
20832;SDS011;56075;51.264;7.150;2023-05-07T01:29:12;8.25;;;2.72;;
20832;SDS011;56075;51.264;7.150;2023-05-07T01:31:44;4.93;;;2.45;;
20832;SDS011;56075;51.264;7.150;2023-05-07T01:34:15;5.15;;;2.55;;
20832;SDS011;56075;51.264;7.150;2023-05-07T01:36:49;7.95;;;2.60;;
20832;SDS011;56075;51.264;7.150;2023-05-07T01:39:20;6.20;;;2.42;;
20832;SDS011;56075;51.264;7.150;2023-05-07T01:41:55;5.10;;;2.67;;
20832;SDS011;56075;51.264;7.150;2023-05-07T01:44:28;8.63;;;2.92;;
20832;SDS011;56075;51.264;7.150;2023-05-07T01:47:00;4.40;;;2.70;;
20832;SDS011;56075;51.264;7.150;2023-05-07T01:49:33;3.55;;;2.53;;
20832;SDS011;56075;51.264;7.150;2023-05-07T01:52:04;5.43;;;2.80;;
20832;SDS011;56075;51.264;7.150;2023-05-07T01:54:36;4.90;;;2.40;;
20832;SDS011;56075;51.264;7.150;2023-05-07T01:57:08;5.95;;;2.28;;
20832;SDS011;56075;51.264;7.150;2023-05-07T01:59:39;4.80;;;2.10;;
20832;SDS011;56075;51.264;7.150;2023-05-07T02:02:10;2.88;;;2.10;;
20832;SDS011;56075;51.264;7.150;2023-05-07T02:04:44;7.35;;;2.47;;
20832;SDS011;56075;51.264;7.150;2023-05-07T02:07:16;5.25;;;2.22;;
20832;SDS011;56075;51.264;7.150;2023-05-07T02:09:47;5.22;;;2.22;;
20832;SDS011;56075;51.264;7.150;2023-05-07T02:12:18;5.60;;;2.70;;
20832;SDS011;56075;51.264;7.150;2023-05-07T02:14:50;3.38;;;2.30;;
20832;SDS011;56075;51.264;7.150;2023-05-07T02:17:21;3.92;;;2.15;;
20832;SDS011;56075;51.264;7.150;2023-05-07T02:19:52;3.97;;;2.30;;
20832;SDS011;56075;51.264;7.150;2023-05-07T02:22:23;3.45;;;2.00;;
20832;SDS011;56075;51.264;7.150;2023-05-07T02:24:55;5.05;;;2.33;;
20832;SDS011;56075;51.264;7.150;2023-05-07T02:27:26;3.72;;;1.95;;
20832;SDS011;56075;51.264;7.150;2023-05-07T02:29:58;3.63;;;2.10;;
20832;SDS011;56075;51.264;7.150;2023-05-07T02:32:29;4.35;;;2.33;;
20832;SDS011;56075;51.264;7.150;2023-05-07T02:35:00;6.03;;;1.98;;
20832;SDS011;56075;51.264;7.150;2023-05-07T02:37:31;3.55;;;2.08;;
20832;SDS011;56075;51.264;7.150;2023-05-07T02:40:03;3.33;;;2.10;;
20832;SDS011;56075;51.264;7.150;2023-05-07T02:42:35;5.78;;;2.60;;
20832;SDS011;56075;51.264;7.150;2023-05-07T02:45:06;5.05;;;2.88;;
20832;SDS011;56075;51.264;7.150;2023-05-07T02:47:40;6.35;;;2.65;;
20832;SDS011;56075;51.264;7.150;2023-05-07T02:50:11;3.08;;;2.22;;
20832;SDS011;56075;51.264;7.150;2023-05-07T02:52:42;4.95;;;2.30;;
20832;SDS011;56075;51.264;7.150;2023-05-07T02:55:13;3.90;;;2.20;;
20832;SDS011;56075;51.264;7.150;2023-05-07T02:57:45;3.08;;;1.90;;
20832;SDS011;56075;51.264;7.150;2023-05-07T03:00:17;5.13;;;2.17;;
20832;SDS011;56075;51.264;7.150;2023-05-07T03:03:13;5.45;;;2.03;;
20832;SDS011;56075;51.264;7.150;2023-05-07T03:05:45;3.35;;;1.83;;
20832;SDS011;56075;51.264;7.150;2023-05-07T03:08:16;3.75;;;1.90;;
20832;SDS011;56075;51.264;7.150;2023-05-07T03:10:47;3.53;;;1.80;;
20832;SDS011;56075;51.264;7.150;2023-05-07T03:13:19;2.40;;;1.65;;
20832;SDS011;56075;51.264;7.150;2023-05-07T03:15:50;2.90;;;1.95;;
20832;SDS011;56075;51.264;7.150;2023-05-07T03:18:21;3.83;;;2.15;;
20832;SDS011;56075;51.264;7.150;2023-05-07T03:20:53;5.32;;;1.83;;
20832;SDS011;56075;51.264;7.150;2023-05-07T03:23:24;2.88;;;1.83;;
20832;SDS011;56075;51.264;7.150;2023-05-07T03:25:55;4.45;;;1.73;;
20832;SDS011;56075;51.264;7.150;2023-05-07T03:28:26;2.42;;;1.83;;
20832;SDS011;56075;51.264;7.150;2023-05-07T03:31:03;3.42;;;1.63;;
20832;SDS011;56075;51.264;7.150;2023-05-07T03:33:35;2.90;;;1.48;;
20832;SDS011;56075;51.264;7.150;2023-05-07T03:36:10;5.32;;;1.60;;
20832;SDS011;56075;51.264;7.150;2023-05-07T03:38:41;3.60;;;1.65;;
20832;SDS011;56075;51.264;7.150;2023-05-07T03:41:12;3.25;;;1.45;;
20832;SDS011;56075;51.264;7.150;2023-05-07T03:43:43;5.57;;;1.77;;
20832;SDS011;56075;51.264;7.150;2023-05-07T03:46:16;6.65;;;1.52;;
20832;SDS011;56075;51.264;7.150;2023-05-07T03:48:48;3.03;;;1.70;;
20832;SDS011;56075;51.264;7.150;2023-05-07T03:51:21;5.80;;;3.05;;
20832;SDS011;56075;51.264;7.150;2023-05-07T03:53:52;5.95;;;3.10;;
20832;SDS011;56075;51.264;7.150;2023-05-07T03:56:24;4.38;;;2.10;;
20832;SDS011;56075;51.264;7.150;2023-05-07T03:59:00;3.38;;;1.90;;
20832;SDS011;56075;51.264;7.150;2023-05-07T04:01:31;3.50;;;2.05;;
20832;SDS011;56075;51.264;7.150;2023-05-07T04:04:04;2.92;;;2.00;;
20832;SDS011;56075;51.264;7.150;2023-05-07T04:06:37;6.20;;;2.28;;
20832;SDS011;56075;51.264;7.150;2023-05-07T04:09:08;5.90;;;2.47;;
20832;SDS011;56075;51.264;7.150;2023-05-07T04:11:41;4.38;;;2.20;;
20832;SDS011;56075;51.264;7.150;2023-05-07T04:14:14;6.38;;;2.60;;
20832;SDS011;56075;51.264;7.150;2023-05-07T04:16:46;4.18;;;2.22;;
20832;SDS011;56075;51.264;7.150;2023-05-07T04:19:17;6.45;;;2.03;;
20832;SDS011;56075;51.264;7.150;2023-05-07T04:21:50;4.63;;;2.20;;
20832;SDS011;56075;51.264;7.150;2023-05-07T04:24:21;6.10;;;2.17;;
20832;SDS011;56075;51.264;7.150;2023-05-07T04:26:53;3.70;;;2.15;;
20832;SDS011;56075;51.264;7.150;2023-05-07T04:29:25;4.07;;;2.17;;
20832;SDS011;56075;51.264;7.150;2023-05-07T04:31:58;4.63;;;2.10;;
20832;SDS011;56075;51.264;7.150;2023-05-07T04:34:30;3.88;;;2.15;;
20832;SDS011;56075;51.264;7.150;2023-05-07T04:37:04;4.10;;;2.25;;
20832;SDS011;56075;51.264;7.150;2023-05-07T04:39:35;5.82;;;2.45;;
20832;SDS011;56075;51.264;7.150;2023-05-07T04:42:07;6.97;;;2.30;;
20832;SDS011;56075;51.264;7.150;2023-05-07T04:44:39;3.40;;;1.90;;
20832;SDS011;56075;51.264;7.150;2023-05-07T04:47:11;3.00;;;1.65;;
20832;SDS011;56075;51.264;7.150;2023-05-07T04:49:43;4.35;;;1.90;;
20832;SDS011;56075;51.264;7.150;2023-05-07T04:52:16;6.35;;;1.90;;
20832;SDS011;56075;51.264;7.150;2023-05-07T04:54:47;7.05;;;2.22;;
20832;SDS011;56075;51.264;7.150;2023-05-07T04:57:19;3.67;;;2.35;;
20832;SDS011;56075;51.264;7.150;2023-05-07T04:59:50;4.07;;;2.25;;
20832;SDS011;56075;51.264;7.150;2023-05-07T05:02:21;4.63;;;1.95;;
20832;SDS011;56075;51.264;7.150;2023-05-07T05:04:52;4.22;;;1.73;;
20832;SDS011;56075;51.264;7.150;2023-05-07T05:07:24;3.45;;;1.70;;
20832;SDS011;56075;51.264;7.150;2023-05-07T05:09:56;5.55;;;1.98;;
20832;SDS011;56075;51.264;7.150;2023-05-07T05:12:29;2.42;;;1.60;;
20832;SDS011;56075;51.264;7.150;2023-05-07T05:15:02;6.63;;;2.22;;
20832;SDS011;56075;51.264;7.150;2023-05-07T05:17:34;4.70;;;2.28;;
20832;SDS011;56075;51.264;7.150;2023-05-07T05:20:08;4.05;;;2.22;;
20832;SDS011;56075;51.264;7.150;2023-05-07T05:22:42;6.45;;;3.50;;
20832;SDS011;56075;51.264;7.150;2023-05-07T05:25:14;3.58;;;2.20;;
20832;SDS011;56075;51.264;7.150;2023-05-07T05:27:45;3.60;;;1.90;;
20832;SDS011;56075;51.264;7.150;2023-05-07T05:30:17;3.75;;;1.75;;
20832;SDS011;56075;51.264;7.150;2023-05-07T05:32:51;3.33;;;1.75;;
20832;SDS011;56075;51.264;7.150;2023-05-07T05:35:22;2.75;;;1.67;;
20832;SDS011;56075;51.264;7.150;2023-05-07T05:37:53;2.70;;;1.90;;
20832;SDS011;56075;51.264;7.150;2023-05-07T05:40:25;3.40;;;1.88;;
20832;SDS011;56075;51.264;7.150;2023-05-07T05:42:56;3.03;;;1.80;;
20832;SDS011;56075;51.264;7.150;2023-05-07T05:45:27;4.93;;;2.50;;
20832;SDS011;56075;51.264;7.150;2023-05-07T05:48:00;5.13;;;2.20;;
20832;SDS011;56075;51.264;7.150;2023-05-07T05:50:31;5.50;;;2.10;;
20832;SDS011;56075;51.264;7.150;2023-05-07T05:53:03;5.07;;;1.88;;
20832;SDS011;56075;51.264;7.150;2023-05-07T05:55:34;3.42;;;1.88;;
20832;SDS011;56075;51.264;7.150;2023-05-07T05:58:06;3.90;;;1.80;;
20832;SDS011;56075;51.264;7.150;2023-05-07T06:00:41;2.60;;;1.63;;
20832;SDS011;56075;51.264;7.150;2023-05-07T06:03:12;3.78;;;1.67;;
20832;SDS011;56075;51.264;7.150;2023-05-07T06:05:43;4.30;;;1.65;;
20832;SDS011;56075;51.264;7.150;2023-05-07T06:08:15;2.25;;;1.50;;
20832;SDS011;56075;51.264;7.150;2023-05-07T06:10:46;2.63;;;1.70;;
20832;SDS011;56075;51.264;7.150;2023-05-07T06:13:18;5.35;;;1.60;;
20832;SDS011;56075;51.264;7.150;2023-05-07T06:15:49;5.30;;;1.60;;
20832;SDS011;56075;51.264;7.150;2023-05-07T06:18:20;3.97;;;1.88;;
20832;SDS011;56075;51.264;7.150;2023-05-07T06:20:52;5.05;;;1.58;;
20832;SDS011;56075;51.264;7.150;2023-05-07T06:23:29;3.60;;;1.70;;
20832;SDS011;56075;51.264;7.150;2023-05-07T06:26:00;3.90;;;1.67;;
20832;SDS011;56075;51.264;7.150;2023-05-07T06:28:38;3.25;;;1.95;;
20832;SDS011;56075;51.264;7.150;2023-05-07T06:31:17;3.60;;;1.58;;
20832;SDS011;56075;51.264;7.150;2023-05-07T06:34:04;4.40;;;1.70;;
20832;SDS011;56075;51.264;7.150;2023-05-07T06:36:41;2.28;;;1.70;;
20832;SDS011;56075;51.264;7.150;2023-05-07T06:39:39;2.85;;;1.58;;
20832;SDS011;56075;51.264;7.150;2023-05-07T06:42:11;2.90;;;1.60;;
20832;SDS011;56075;51.264;7.150;2023-05-07T06:44:46;3.05;;;1.70;;
20832;SDS011;56075;51.264;7.150;2023-05-07T06:47:20;5.03;;;1.80;;
20832;SDS011;56075;51.264;7.150;2023-05-07T06:49:56;6.47;;;3.20;;
20832;SDS011;56075;51.264;7.150;2023-05-07T06:52:31;5.03;;;2.40;;
20832;SDS011;56075;51.264;7.150;2023-05-07T06:55:02;3.53;;;2.03;;
20832;SDS011;56075;51.264;7.150;2023-05-07T06:57:34;5.63;;;1.95;;
20832;SDS011;56075;51.264;7.150;2023-05-07T07:00:05;3.28;;;1.70;;
20832;SDS011;56075;51.264;7.150;2023-05-07T07:02:46;3.15;;;1.73;;
20832;SDS011;56075;51.264;7.150;2023-05-07T07:05:20;3.42;;;1.77;;
20832;SDS011;56075;51.264;7.150;2023-05-07T07:07:51;4.18;;;2.40;;
20832;SDS011;56075;51.264;7.150;2023-05-07T07:10:26;2.90;;;1.38;;
20832;SDS011;56075;51.264;7.150;2023-05-07T07:12:58;4.28;;;1.77;;
20832;SDS011;56075;51.264;7.150;2023-05-07T07:15:30;5.40;;;1.60;;
20832;SDS011;56075;51.264;7.150;2023-05-07T07:18:02;4.38;;;2.70;;
20832;SDS011;56075;51.264;7.150;2023-05-07T07:20:33;3.55;;;2.20;;
20832;SDS011;56075;51.264;7.150;2023-05-07T07:23:05;2.78;;;2.00;;
20832;SDS011;56075;51.264;7.150;2023-05-07T07:25:36;3.97;;;1.92;;
20832;SDS011;56075;51.264;7.150;2023-05-07T07:28:07;4.65;;;1.60;;
20832;SDS011;56075;51.264;7.150;2023-05-07T07:30:41;4.07;;;1.88;;
20832;SDS011;56075;51.264;7.150;2023-05-07T07:33:13;2.63;;;1.70;;
20832;SDS011;56075;51.264;7.150;2023-05-07T07:35:45;3.17;;;1.75;;
20832;SDS011;56075;51.264;7.150;2023-05-07T07:38:16;2.38;;;1.67;;
20832;SDS011;56075;51.264;7.150;2023-05-07T07:40:48;3.95;;;1.92;;
20832;SDS011;56075;51.264;7.150;2023-05-07T07:43:19;3.80;;;1.90;;
20832;SDS011;56075;51.264;7.150;2023-05-07T07:45:50;5.13;;;1.73;;
20832;SDS011;56075;51.264;7.150;2023-05-07T07:48:22;3.10;;;1.60;;
20832;SDS011;56075;51.264;7.150;2023-05-07T07:50:54;3.03;;;1.40;;
20832;SDS011;56075;51.264;7.150;2023-05-07T07:53:25;2.17;;;1.40;;
20832;SDS011;56075;51.264;7.150;2023-05-07T07:55:57;2.63;;;1.42;;
20832;SDS011;56075;51.264;7.150;2023-05-07T07:58:31;3.58;;;1.48;;
20832;SDS011;56075;51.264;7.150;2023-05-07T08:01:02;3.00;;;1.40;;
20832;SDS011;56075;51.264;7.150;2023-05-07T08:03:34;5.22;;;2.35;;
20832;SDS011;56075;51.264;7.150;2023-05-07T08:06:06;4.13;;;1.45;;
20832;SDS011;56075;51.264;7.150;2023-05-07T08:08:39;2.03;;;1.33;;
20832;SDS011;56075;51.264;7.150;2023-05-07T08:11:11;2.65;;;1.70;;
20832;SDS011;56075;51.264;7.150;2023-05-07T08:13:42;2.58;;;1.48;;
20832;SDS011;56075;51.264;7.150;2023-05-07T08:16:14;1.88;;;1.25;;
20832;SDS011;56075;51.264;7.150;2023-05-07T08:18:46;3.17;;;1.40;;
20832;SDS011;56075;51.264;7.150;2023-05-07T08:21:18;3.33;;;1.48;;
20832;SDS011;56075;51.264;7.150;2023-05-07T08:23:49;2.58;;;1.40;;
20832;SDS011;56075;51.264;7.150;2023-05-07T08:26:20;2.63;;;1.50;;
20832;SDS011;56075;51.264;7.150;2023-05-07T08:28:51;2.47;;;1.30;;
20832;SDS011;56075;51.264;7.150;2023-05-07T08:31:22;3.20;;;1.52;;
20832;SDS011;56075;51.264;7.150;2023-05-07T08:33:54;3.38;;;1.40;;
20832;SDS011;56075;51.264;7.150;2023-05-07T08:36:27;3.72;;;1.35;;
20832;SDS011;56075;51.264;7.150;2023-05-07T08:38:59;2.45;;;1.40;;
20832;SDS011;56075;51.264;7.150;2023-05-07T08:41:32;1.42;;;1.10;;
20832;SDS011;56075;51.264;7.150;2023-05-07T08:44:07;2.72;;;1.33;;
20832;SDS011;56075;51.264;7.150;2023-05-07T08:46:44;1.80;;;1.30;;
20832;SDS011;56075;51.264;7.150;2023-05-07T08:49:21;3.97;;;1.42;;
20832;SDS011;56075;51.264;7.150;2023-05-07T08:51:52;4.25;;;1.30;;
20832;SDS011;56075;51.264;7.150;2023-05-07T08:54:24;1.75;;;1.20;;
20832;SDS011;56075;51.264;7.150;2023-05-07T08:56:56;4.82;;;1.60;;
20832;SDS011;56075;51.264;7.150;2023-05-07T08:59:28;2.95;;;1.40;;
20832;SDS011;56075;51.264;7.150;2023-05-07T09:02:00;2.35;;;1.27;;
20832;SDS011;56075;51.264;7.150;2023-05-07T09:04:32;3.00;;;1.50;;
20832;SDS011;56075;51.264;7.150;2023-05-07T09:07:04;2.42;;;1.30;;
20832;SDS011;56075;51.264;7.150;2023-05-07T09:09:38;3.17;;;1.33;;
20832;SDS011;56075;51.264;7.150;2023-05-07T09:12:09;3.70;;;1.40;;
20832;SDS011;56075;51.264;7.150;2023-05-07T09:14:41;3.00;;;1.60;;
20832;SDS011;56075;51.264;7.150;2023-05-07T09:17:12;4.65;;;1.38;;
20832;SDS011;56075;51.264;7.150;2023-05-07T09:19:45;4.68;;;1.60;;
20832;SDS011;56075;51.264;7.150;2023-05-07T09:22:18;2.85;;;1.30;;
20832;SDS011;56075;51.264;7.150;2023-05-07T09:25:03;3.63;;;1.48;;
20832;SDS011;56075;51.264;7.150;2023-05-07T09:27:35;2.58;;;1.38;;
20832;SDS011;56075;51.264;7.150;2023-05-07T09:30:07;1.58;;;1.10;;
20832;SDS011;56075;51.264;7.150;2023-05-07T09:32:40;3.50;;;1.58;;
20832;SDS011;56075;51.264;7.150;2023-05-07T09:35:17;5.45;;;2.33;;
20832;SDS011;56075;51.264;7.150;2023-05-07T09:37:53;4.05;;;2.00;;
20832;SDS011;56075;51.264;7.150;2023-05-07T09:40:28;5.07;;;1.70;;
20832;SDS011;56075;51.264;7.150;2023-05-07T09:43:09;5.72;;;1.70;;
20832;SDS011;56075;51.264;7.150;2023-05-07T09:45:45;2.17;;;1.35;;
20832;SDS011;56075;51.264;7.150;2023-05-07T09:48:23;3.70;;;1.40;;
20832;SDS011;56075;51.264;7.150;2023-05-07T09:50:58;3.22;;;1.40;;
20832;SDS011;56075;51.264;7.150;2023-05-07T09:53:35;3.58;;;1.50;;
20832;SDS011;56075;51.264;7.150;2023-05-07T09:56:09;23.05;;;2.00;;
20832;SDS011;56075;51.264;7.150;2023-05-07T09:58:42;1.35;;;1.00;;
20832;SDS011;56075;51.264;7.150;2023-05-07T10:01:16;2.78;;;1.20;;
20832;SDS011;56075;51.264;7.150;2023-05-07T10:03:49;3.13;;;1.10;;
20832;SDS011;56075;51.264;7.150;2023-05-07T10:06:21;3.13;;;1.20;;
20832;SDS011;56075;51.264;7.150;2023-05-07T10:08:54;3.03;;;1.23;;
20832;SDS011;56075;51.264;7.150;2023-05-07T10:11:28;3.95;;;1.42;;
20832;SDS011;56075;51.264;7.150;2023-05-07T10:14:00;2.63;;;1.08;;
20832;SDS011;56075;51.264;7.150;2023-05-07T10:16:34;2.75;;;1.00;;
20832;SDS011;56075;51.264;7.150;2023-05-07T10:19:09;1.63;;;1.20;;
20832;SDS011;56075;51.264;7.150;2023-05-07T10:21:46;4.40;;;2.10;;
20832;SDS011;56075;51.264;7.150;2023-05-07T10:24:32;1.83;;;1.10;;
20832;SDS011;56075;51.264;7.150;2023-05-07T10:27:07;1.95;;;1.40;;
20832;SDS011;56075;51.264;7.150;2023-05-07T10:30:06;4.35;;;1.55;;
20832;SDS011;56075;51.264;7.150;2023-05-07T10:32:47;1.77;;;1.02;;
20832;SDS011;56075;51.264;7.150;2023-05-07T10:35:32;3.13;;;1.10;;
20832;SDS011;56075;51.264;7.150;2023-05-07T10:38:09;4.57;;;1.30;;
20832;SDS011;56075;51.264;7.150;2023-05-07T10:40:43;2.85;;;0.90;;
20832;SDS011;56075;51.264;7.150;2023-05-07T10:43:15;2.05;;;1.00;;
20832;SDS011;56075;51.264;7.150;2023-05-07T10:51:40;3.00;;;1.00;;
20832;SDS011;56075;51.264;7.150;2023-05-07T10:54:19;2.60;;;0.82;;
20832;SDS011;56075;51.264;7.150;2023-05-07T11:05:38;3.88;;;2.10;;
20832;SDS011;56075;51.264;7.150;2023-05-07T11:11:47;3.80;;;1.00;;
20832;SDS011;56075;51.264;7.150;2023-05-07T11:17:17;5.78;;;1.33;;
20832;SDS011;56075;51.264;7.150;2023-05-07T11:19:54;2.42;;;1.50;;
20832;SDS011;56075;51.264;7.150;2023-05-07T11:22:45;4.40;;;1.77;;
20832;SDS011;56075;51.264;7.150;2023-05-07T11:25:39;2.90;;;1.33;;
20832;SDS011;56075;51.264;7.150;2023-05-07T11:28:21;7.05;;;1.20;;
20832;SDS011;56075;51.264;7.150;2023-05-07T11:31:02;16.77;;;2.13;;
20832;SDS011;56075;51.264;7.150;2023-05-07T11:33:34;2.92;;;1.50;;
20832;SDS011;56075;51.264;7.150;2023-05-07T11:36:09;7.53;;;1.40;;
20832;SDS011;56075;51.264;7.150;2023-05-07T11:38:46;4.45;;;1.50;;
20832;SDS011;56075;51.264;7.150;2023-05-07T11:41:17;1.65;;;1.35;;
20832;SDS011;56075;51.264;7.150;2023-05-07T11:43:54;5.28;;;1.50;;
20832;SDS011;56075;51.264;7.150;2023-05-07T11:46:28;1.88;;;1.40;;
20832;SDS011;56075;51.264;7.150;2023-05-07T11:49:01;2.13;;;1.40;;
20832;SDS011;56075;51.264;7.150;2023-05-07T11:51:32;5.72;;;1.40;;
20832;SDS011;56075;51.264;7.150;2023-05-07T11:54:04;6.40;;;1.55;;
20832;SDS011;56075;51.264;7.150;2023-05-07T11:56:39;3.25;;;1.50;;
20832;SDS011;56075;51.264;7.150;2023-05-07T11:59:10;2.72;;;1.70;;
20832;SDS011;56075;51.264;7.150;2023-05-07T12:01:42;6.10;;;1.75;;
20832;SDS011;56075;51.264;7.150;2023-05-07T12:04:18;2.58;;;1.55;;
20832;SDS011;56075;51.264;7.150;2023-05-07T12:06:54;4.20;;;1.30;;
20832;SDS011;56075;51.264;7.150;2023-05-07T12:09:26;3.35;;;1.92;;
20832;SDS011;56075;51.264;7.150;2023-05-07T12:11:58;2.75;;;1.70;;
20832;SDS011;56075;51.264;7.150;2023-05-07T12:14:38;4.45;;;1.95;;
20832;SDS011;56075;51.264;7.150;2023-05-07T12:17:10;3.83;;;1.73;;
20832;SDS011;56075;51.264;7.150;2023-05-07T12:19:44;2.38;;;1.75;;
20832;SDS011;56075;51.264;7.150;2023-05-07T12:22:15;3.67;;;1.80;;
20832;SDS011;56075;51.264;7.150;2023-05-07T12:24:55;4.50;;;1.52;;
20832;SDS011;56075;51.264;7.150;2023-05-07T12:27:27;5.60;;;1.85;;
20832;SDS011;56075;51.264;7.150;2023-05-07T12:29:59;4.45;;;1.92;;
20832;SDS011;56075;51.264;7.150;2023-05-07T12:32:30;3.00;;;1.77;;
20832;SDS011;56075;51.264;7.150;2023-05-07T12:35:01;5.13;;;2.30;;
20832;SDS011;56075;51.264;7.150;2023-05-07T12:37:32;4.28;;;1.90;;
20832;SDS011;56075;51.264;7.150;2023-05-07T12:40:06;3.70;;;2.20;;
20832;SDS011;56075;51.264;7.150;2023-05-07T12:42:39;9.68;;;2.90;;
20832;SDS011;56075;51.264;7.150;2023-05-07T12:45:11;5.80;;;2.80;;
20832;SDS011;56075;51.264;7.150;2023-05-07T12:47:46;5.85;;;2.83;;
20832;SDS011;56075;51.264;7.150;2023-05-07T12:50:17;6.78;;;3.10;;
20832;SDS011;56075;51.264;7.150;2023-05-07T12:52:49;6.25;;;2.70;;
20832;SDS011;56075;51.264;7.150;2023-05-07T12:55:20;6.53;;;2.67;;
20832;SDS011;56075;51.264;7.150;2023-05-07T12:57:51;8.05;;;3.08;;
20832;SDS011;56075;51.264;7.150;2023-05-07T13:00:36;6.38;;;3.15;;
20832;SDS011;56075;51.264;7.150;2023-05-07T13:03:09;6.82;;;3.55;;
20832;SDS011;56075;51.264;7.150;2023-05-07T13:05:41;6.25;;;3.42;;
20832;SDS011;56075;51.264;7.150;2023-05-07T13:08:13;5.43;;;3.40;;
20832;SDS011;56075;51.264;7.150;2023-05-07T13:10:56;5.88;;;3.70;;
20832;SDS011;56075;51.264;7.150;2023-05-07T13:13:34;7.93;;;3.67;;
20832;SDS011;56075;51.264;7.150;2023-05-07T13:16:07;6.78;;;3.40;;
20832;SDS011;56075;51.264;7.150;2023-05-07T13:18:40;6.05;;;3.47;;
20832;SDS011;56075;51.264;7.150;2023-05-07T13:21:13;4.20;;;2.40;;
20832;SDS011;56075;51.264;7.150;2023-05-07T13:23:45;8.07;;;2.38;;
20832;SDS011;56075;51.264;7.150;2023-05-07T13:26:16;3.25;;;2.08;;
20832;SDS011;56075;51.264;7.150;2023-05-07T13:28:47;3.95;;;1.98;;
20832;SDS011;56075;51.264;7.150;2023-05-07T13:31:19;2.25;;;1.55;;
20832;SDS011;56075;51.264;7.150;2023-05-07T13:33:51;2.63;;;1.70;;
20832;SDS011;56075;51.264;7.150;2023-05-07T13:36:23;5.97;;;2.10;;
20832;SDS011;56075;51.264;7.150;2023-05-07T13:38:54;3.13;;;2.00;;
20832;SDS011;56075;51.264;7.150;2023-05-07T13:41:25;4.88;;;2.00;;
20832;SDS011;56075;51.264;7.150;2023-05-07T13:43:56;4.20;;;1.60;;
20832;SDS011;56075;51.264;7.150;2023-05-07T13:46:27;3.65;;;1.70;;
20832;SDS011;56075;51.264;7.150;2023-05-07T13:49:00;2.72;;;1.70;;
20832;SDS011;56075;51.264;7.150;2023-05-07T13:51:32;4.53;;;1.58;;
20832;SDS011;56075;51.264;7.150;2023-05-07T13:54:03;2.22;;;1.50;;
20832;SDS011;56075;51.264;7.150;2023-05-07T13:56:35;3.40;;;1.63;;
20832;SDS011;56075;51.264;7.150;2023-05-07T13:59:06;2.55;;;1.50;;
20832;SDS011;56075;51.264;7.150;2023-05-07T14:01:38;2.22;;;1.52;;
20832;SDS011;56075;51.264;7.150;2023-05-07T14:04:10;3.10;;;1.50;;
20832;SDS011;56075;51.264;7.150;2023-05-07T14:06:41;3.47;;;1.80;;
20832;SDS011;56075;51.264;7.150;2023-05-07T14:09:12;3.25;;;1.58;;
20832;SDS011;56075;51.264;7.150;2023-05-07T14:11:44;3.58;;;1.70;;
20832;SDS011;56075;51.264;7.150;2023-05-07T14:14:17;2.95;;;1.67;;
20832;SDS011;56075;51.264;7.150;2023-05-07T14:16:50;3.50;;;1.80;;
20832;SDS011;56075;51.264;7.150;2023-05-07T14:19:21;4.45;;;2.00;;
20832;SDS011;56075;51.264;7.150;2023-05-07T14:21:54;3.20;;;2.00;;
20832;SDS011;56075;51.264;7.150;2023-05-07T14:24:26;5.00;;;2.30;;
20832;SDS011;56075;51.264;7.150;2023-05-07T14:26:57;5.13;;;2.60;;
20832;SDS011;56075;51.264;7.150;2023-05-07T14:29:28;6.85;;;3.00;;
20832;SDS011;56075;51.264;7.150;2023-05-07T14:31:59;7.10;;;3.63;;
20832;SDS011;56075;51.264;7.150;2023-05-07T14:34:30;7.45;;;4.13;;
20832;SDS011;56075;51.264;7.150;2023-05-07T14:37:02;9.68;;;5.68;;
20832;SDS011;56075;51.264;7.150;2023-05-07T14:39:34;11.30;;;6.38;;
20832;SDS011;56075;51.264;7.150;2023-05-07T14:42:05;9.85;;;5.97;;
20832;SDS011;56075;51.264;7.150;2023-05-07T14:44:38;9.73;;;6.00;;
20832;SDS011;56075;51.264;7.150;2023-05-07T14:47:12;10.80;;;6.43;;
20832;SDS011;56075;51.264;7.150;2023-05-07T14:49:43;9.02;;;5.57;;
20832;SDS011;56075;51.264;7.150;2023-05-07T14:52:14;10.15;;;5.75;;
20832;SDS011;56075;51.264;7.150;2023-05-07T14:54:45;8.00;;;5.05;;
20832;SDS011;56075;51.264;7.150;2023-05-07T14:57:17;9.40;;;5.90;;
20832;SDS011;56075;51.264;7.150;2023-05-07T14:59:49;11.25;;;5.35;;
20832;SDS011;56075;51.264;7.150;2023-05-07T15:02:20;10.27;;;5.40;;
20832;SDS011;56075;51.264;7.150;2023-05-07T15:04:51;9.13;;;5.57;;
20832;SDS011;56075;51.264;7.150;2023-05-07T15:07:22;9.43;;;5.30;;
20832;SDS011;56075;51.264;7.150;2023-05-07T15:09:53;8.50;;;5.13;;
20832;SDS011;56075;51.264;7.150;2023-05-07T15:12:24;11.88;;;5.50;;
20832;SDS011;56075;51.264;7.150;2023-05-07T15:14:56;9.10;;;5.30;;
20832;SDS011;56075;51.264;7.150;2023-05-07T15:17:27;7.90;;;5.43;;
20832;SDS011;56075;51.264;7.150;2023-05-07T15:19:58;10.65;;;5.88;;
20832;SDS011;56075;51.264;7.150;2023-05-07T15:22:29;11.38;;;6.30;;
20832;SDS011;56075;51.264;7.150;2023-05-07T15:25:01;9.73;;;6.30;;
20832;SDS011;56075;51.264;7.150;2023-05-07T15:27:32;10.48;;;6.05;;
20832;SDS011;56075;51.264;7.150;2023-05-07T15:30:03;10.30;;;6.30;;
20832;SDS011;56075;51.264;7.150;2023-05-07T15:32:37;9.18;;;5.88;;
20832;SDS011;56075;51.264;7.150;2023-05-07T15:35:09;11.30;;;6.07;;
20832;SDS011;56075;51.264;7.150;2023-05-07T15:37:40;10.48;;;6.30;;
20832;SDS011;56075;51.264;7.150;2023-05-07T15:40:11;11.70;;;6.28;;
20832;SDS011;56075;51.264;7.150;2023-05-07T15:42:44;17.02;;;7.32;;